Neptune Antlia — S6BE — position and weather

sailwx.info

Track history (hours):
 
Tides and Currents Weather Stations Pressure Air Temp Water Temp Dewpoint Dewpoint Depression Visibility Wind Speed Wind Dir Waves Ship Positions

Neptune Antlia

Last reported at 2015-Jul-04 03:32 UTC. Time now 2015-Jul-04 13:43 UTC.
Position N 31°03' E 122°48'.

Type: Cargo ship. MMSI: 563737000.

Date/timePositionNaut miles runAvg speedWind from/ knotsBaromVisibWave heightAir tempDewpointWater temp
2015-Jul-04 03:32N 31°03' E 122°48'0 0.1
2015-Jul-04 00:29N 31°03' E 122°48'0 0.2
2015-Jul-03 23:26N 31°03' E 122°48'0 0.1
2015-Jul-03 22:32N 31°03' E 122°48'0 0.1
2015-Jul-03 21:32N 31°03' E 122°49'0 0.1
2015-Jul-03 20:32N 31°03' E 122°49'0 0.1
2015-Jul-03 19:20N 31°03' E 122°49'0 0.1
2015-Jul-03 18:33N 31°03' E 122°48'7 7.3
2015-Jul-03 17:33N 30°58' E 122°42'1313.3
2015-Jul-03 16:33N 31°00' E 122°26'1111.3
2015-Jul-03 15:33N 31°03' E 122°14'9 9.4
2015-Jul-03 14:33N 31°04' E 122°03'9 8.9
2015-Jul-03 13:33N 31°08' E 121°54'1313.3
2015-Jul-03 12:33N 31°18' E 121°43'1111.5
2015-Jul-03 11:33N 31°24' E 121°32'1110.6
2015-Jul-03 10:33N 31°31' E 121°22'1312.6
2015-Jul-03 09:33N 31°40' E 121°12'1212.5
2015-Jul-03 08:33N 31°47' E 120°59'2 2.1
2015-Jul-03 07:32N 31°46' E 120°57'0 0.0
2015-Jul-03 06:07N 31°46' E 120°57'0 0.1
2015-Jul-03 05:33N 31°46' E 120°57'0 0.1
2015-Jul-03 04:33N 31°46' E 120°57'0 0.0
2015-Jul-03 03:33N 31°46' E 120°57'0 0.0
2015-Jul-03 02:33N 31°46' E 120°57'0 0.0
2015-Jul-03 01:32N 31°46' E 120°57'0 0.0
2015-Jul-03 00:33N 31°46' E 120°57'0 0.1
2015-Jul-02 23:33N 31°46' E 120°57'0 0.1
2015-Jul-02 22:33N 31°46' E 120°57'0 0.0
2015-Jul-02 21:33N 31°46' E 120°57'0 0.0
2015-Jul-02 20:33N 31°46' E 120°57'0 0.0
2015-Jul-02 19:33N 31°46' E 120°57'0 0.1
2015-Jul-02 18:33N 31°46' E 120°57'0 0.1
2015-Jul-02 17:33N 31°46' E 120°57'0 0.1
2015-Jul-02 16:33N 31°46' E 120°57'0 0.1
2015-Jul-02 15:33N 31°46' E 120°57'0 0.0
2015-Jul-02 14:33N 31°46' E 120°57'0 0.0
2015-Jul-02 13:32N 31°46' E 120°57'0 0.0
2015-Jul-02 12:33N 31°46' E 120°57'0 0.0
2015-Jul-02 11:33N 31°46' E 120°57'0 0.0
2015-Jul-02 10:33N 31°46' E 120°57'0 0.0
2015-Jul-02 09:33N 31°46' E 120°57'0 0.0
2015-Jul-02 08:33N 31°46' E 120°57'0 0.0
2015-Jul-02 07:33N 31°46' E 120°57'0 0.1
2015-Jul-02 06:33N 31°46' E 120°57'0 0.0
2015-Jul-02 05:33N 31°46' E 120°57'0 0.0
2015-Jul-02 04:30N 31°46' E 120°57'0 0.0
2015-Jul-02 03:30N 31°46' E 120°57'0 0.0
2015-Jul-02 02:30N 31°46' E 120°57'0 0.0
2015-Jul-02 01:31N 31°46' E 120°57'0 0.0
2015-Jul-02 00:33N 31°46' E 120°57'0 0.0
2015-Jul-01 23:33N 31°46' E 120°57'0 0.0
2015-Jul-01 22:33N 31°46' E 120°57'0 0.0
2015-Jul-01 21:32N 31°46' E 120°57'0 0.0
2015-Jul-01 20:33N 31°46' E 120°57'0 0.0
2015-Jul-01 19:33N 31°46' E 120°57'0 0.0
2015-Jul-01 18:33N 31°46' E 120°57'0 0.0
2015-Jul-01 17:33N 31°46' E 120°57'0 0.1
2015-Jul-01 16:33N 31°46' E 120°57'0 0.1
2015-Jul-01 15:33N 31°46' E 120°57'0 0.0
2015-Jul-01 14:28N 31°46' E 120°57'0 0.0
2015-Jul-01 13:33N 31°46' E 120°57'0 0.0
2015-Jul-01 12:33N 31°46' E 120°57'0 0.0
2015-Jul-01 11:33N 31°46' E 120°57'0 0.0
2015-Jul-01 10:33N 31°46' E 120°57'0 0.0
2015-Jul-01 09:33N 31°46' E 120°57'0 0.0
2015-Jul-01 08:31N 31°46' E 120°57'0 0.0
2015-Jul-01 07:33N 31°46' E 120°57'0 0.0
2015-Jul-01 06:13N 31°46' E 120°57'0 0.1
2015-Jul-01 05:33N 31°46' E 120°57'0 0.1
2015-Jul-01 04:33N 31°46' E 120°57'0 0.0
2015-Jul-01 03:33N 31°46' E 120°57'0 0.0
2015-Jul-01 02:33N 31°46' E 120°57'0 0.0
2015-Jul-01 01:33N 31°46' E 120°57'0 0.0
2015-Jul-01 00:33N 31°46' E 120°57'0 0.0
2015-Jun-30 23:33N 31°46' E 120°57'0 0.0
2015-Jun-30 22:33N 31°46' E 120°57'0 0.0
2015-Jun-30 21:33N 31°46' E 120°57'0 0.0
2015-Jun-30 20:33N 31°46' E 120°57'4 4.1
2015-Jun-30 19:33N 31°46' E 121°02'1010.3
2015-Jun-30 18:33N 31°41' E 121°11'1312.8
2015-Jun-30 17:33N 31°32' E 121°22'1111.0
2015-Jun-30 16:33N 31°25' E 121°32'9 8.8
2015-Jun-30 15:33N 31°20' E 121°41'1010.3
2015-Jun-30 14:33N 31°16' E 121°52'1110.7
2015-Jun-30 13:33N 31°14' E 122°05'1110.9
2015-Jun-30 12:33N 31°08' E 122°15'8 8.1
2015-Jun-30 11:31N 31°07' E 122°25'52912.0
2015-Jun-28 15:20N 23°22' E 117°42'18913.4
2015-Jun-28 01:12N 22°08' E 114°33'2810.6
2015-Jun-27 22:33N 22°19' E 114°05'0 0.1
2015-Jun-27 21:33N 22°19' E 114°05'0 0.0
2015-Jun-27 20:33N 22°19' E 114°05'0 0.0
2015-Jun-27 19:33N 22°19' E 114°05'0 0.1
2015-Jun-27 18:33N 22°19' E 114°05'0 0.2
2015-Jun-27 17:33N 22°19' E 114°05'0 0.1
2015-Jun-27 16:33N 22°19' E 114°05'0 0.0
2015-Jun-27 15:30N 22°19' E 114°05'0 0.0
2015-Jun-27 14:33N 22°19' E 114°05'0 0.1
2015-Jun-27 13:33N 22°19' E 114°05'0 0.0
2015-Jun-27 12:33N 22°19' E 114°05'0 0.1
2015-Jun-27 11:30N 22°19' E 114°05'0 0.1
2015-Jun-27 10:33N 22°19' E 114°05'0 0.1
2015-Jun-27 09:33N 22°19' E 114°05'0 0.1
2015-Jun-27 08:33N 22°19' E 114°05'0 0.0
2015-Jun-27 07:33N 22°19' E 114°05'0 0.1
2015-Jun-27 06:33N 22°19' E 114°05'0 0.1
2015-Jun-27 05:33N 22°19' E 114°05'0 0.0
2015-Jun-27 04:33N 22°19' E 114°05'0 0.0
2015-Jun-27 03:33N 22°19' E 114°05'0 0.0
2015-Jun-27 02:33N 22°19' E 114°05'0 0.1
2015-Jun-27 01:33N 22°19' E 114°05'0 0.1
2015-Jun-27 00:30N 22°19' E 114°05'0 0.1
2015-Jun-26 23:33N 22°19' E 114°05'0 0.1
2015-Jun-26 22:33N 22°19' E 114°05'0 0.1
2015-Jun-26 21:33N 22°19' E 114°05'0 0.0
2015-Jun-26 20:33N 22°19' E 114°05'0 0.0
2015-Jun-26 19:33N 22°19' E 114°05'0 0.0
2015-Jun-26 18:33N 22°19' E 114°05'0 0.1
2015-Jun-26 17:33N 22°19' E 114°05'0 0.2
2015-Jun-26 16:33N 22°19' E 114°05'8 6.7
2015-Jun-26 15:25N 22°13' E 114°10'8 7.4
2015-Jun-26 14:20N 22°09' E 114°18'  
Track history (hours):
 
Tides and Currents Weather Stations Pressure Air Temp Water Temp Dewpoint Dewpoint Depression Visibility Wind Speed Wind Dir Waves Ship Positions

Neptune Antlia

Last reported at 2015-Jul-04 03:32 UTC. Time now 2015-Jul-04 13:43 UTC.
Position N 31°03' E 122°48'.

Type: Cargo ship. MMSI: 563737000.

Date/timePositionNaut miles runAvg speedWind from/ knotsBaromVisibWave heightAir tempDewpointWater temp
2015-Jul-04 03:32N 31°03' E 122°48'0 0.1
2015-Jul-04 00:29N 31°03' E 122°48'0 0.2
2015-Jul-03 23:26N 31°03' E 122°48'0 0.1
2015-Jul-03 22:32N 31°03' E 122°48'0 0.1
2015-Jul-03 21:32N 31°03' E 122°49'0 0.1
2015-Jul-03 20:32N 31°03' E 122°49'0 0.1
2015-Jul-03 19:20N 31°03' E 122°49'0 0.1
2015-Jul-03 18:33N 31°03' E 122°48'7 7.3
2015-Jul-03 17:33N 30°58' E 122°42'1313.3
2015-Jul-03 16:33N 31°00' E 122°26'1111.3
2015-Jul-03 15:33N 31°03' E 122°14'9 9.4
2015-Jul-03 14:33N 31°04' E 122°03'9 8.9
2015-Jul-03 13:33N 31°08' E 121°54'1313.3
2015-Jul-03 12:33N 31°18' E 121°43'1111.5
2015-Jul-03 11:33N 31°24' E 121°32'1110.6
2015-Jul-03 10:33N 31°31' E 121°22'1312.6
2015-Jul-03 09:33N 31°40' E 121°12'1212.5
2015-Jul-03 08:33N 31°47' E 120°59'2 2.1
2015-Jul-03 07:32N 31°46' E 120°57'0 0.0
2015-Jul-03 06:07N 31°46' E 120°57'0 0.1
2015-Jul-03 05:33N 31°46' E 120°57'0 0.1
2015-Jul-03 04:33N 31°46' E 120°57'0 0.0
2015-Jul-03 03:33N 31°46' E 120°57'0 0.0
2015-Jul-03 02:33N 31°46' E 120°57'0 0.0
2015-Jul-03 01:32N 31°46' E 120°57'0 0.0
2015-Jul-03 00:33N 31°46' E 120°57'0 0.1
2015-Jul-02 23:33N 31°46' E 120°57'0 0.1
2015-Jul-02 22:33N 31°46' E 120°57'0 0.0
2015-Jul-02 21:33N 31°46' E 120°57'0 0.0
2015-Jul-02 20:33N 31°46' E 120°57'0 0.0
2015-Jul-02 19:33N 31°46' E 120°57'0 0.1
2015-Jul-02 18:33N 31°46' E 120°57'0 0.1
2015-Jul-02 17:33N 31°46' E 120°57'0 0.1
2015-Jul-02 16:33N 31°46' E 120°57'0 0.1
2015-Jul-02 15:33N 31°46' E 120°57'0 0.0
2015-Jul-02 14:33N 31°46' E 120°57'0 0.0
2015-Jul-02 13:32N 31°46' E 120°57'0 0.0
2015-Jul-02 12:33N 31°46' E 120°57'0 0.0
2015-Jul-02 11:33N 31°46' E 120°57'0 0.0
2015-Jul-02 10:33N 31°46' E 120°57'0 0.0
2015-Jul-02 09:33N 31°46' E 120°57'0 0.0
2015-Jul-02 08:33N 31°46' E 120°57'0 0.0
2015-Jul-02 07:33N 31°46' E 120°57'0 0.1
2015-Jul-02 06:33N 31°46' E 120°57'0 0.0
2015-Jul-02 05:33N 31°46' E 120°57'0 0.0
2015-Jul-02 04:30N 31°46' E 120°57'0 0.0
2015-Jul-02 03:30N 31°46' E 120°57'0 0.0
2015-Jul-02 02:30N 31°46' E 120°57'0 0.0
2015-Jul-02 01:31N 31°46' E 120°57'0 0.0
2015-Jul-02 00:33N 31°46' E 120°57'0 0.0
2015-Jul-01 23:33N 31°46' E 120°57'0 0.0
2015-Jul-01 22:33N 31°46' E 120°57'0 0.0
2015-Jul-01 21:32N 31°46' E 120°57'0 0.0
2015-Jul-01 20:33N 31°46' E 120°57'0 0.0
2015-Jul-01 19:33N 31°46' E 120°57'0 0.0
2015-Jul-01 18:33N 31°46' E 120°57'0 0.0
2015-Jul-01 17:33N 31°46' E 120°57'0 0.1
2015-Jul-01 16:33N 31°46' E 120°57'0 0.1
2015-Jul-01 15:33N 31°46' E 120°57'0 0.0
2015-Jul-01 14:28N 31°46' E 120°57'0 0.0
2015-Jul-01 13:33N 31°46' E 120°57'0 0.0
2015-Jul-01 12:33N 31°46' E 120°57'0 0.0
2015-Jul-01 11:33N 31°46' E 120°57'0 0.0
2015-Jul-01 10:33N 31°46' E 120°57'0 0.0
2015-Jul-01 09:33N 31°46' E 120°57'0 0.0
2015-Jul-01 08:31N 31°46' E 120°57'0 0.0
2015-Jul-01 07:33N 31°46' E 120°57'0 0.0
2015-Jul-01 06:13N 31°46' E 120°57'0 0.1
2015-Jul-01 05:33N 31°46' E 120°57'0 0.1
2015-Jul-01 04:33N 31°46' E 120°57'0 0.0
2015-Jul-01 03:33N 31°46' E 120°57'0 0.0
2015-Jul-01 02:33N 31°46' E 120°57'0 0.0
2015-Jul-01 01:33N 31°46' E 120°57'0 0.0
2015-Jul-01 00:33N 31°46' E 120°57'0 0.0
2015-Jun-30 23:33N 31°46' E 120°57'0 0.0
2015-Jun-30 22:33N 31°46' E 120°57'0 0.0
2015-Jun-30 21:33N 31°46' E 120°57'0 0.0
2015-Jun-30 20:33N 31°46' E 120°57'4 4.1
2015-Jun-30 19:33N 31°46' E 121°02'1010.3
2015-Jun-30 18:33N 31°41' E 121°11'1312.8
2015-Jun-30 17:33N 31°32' E 121°22'1111.0
2015-Jun-30 16:33N 31°25' E 121°32'9 8.8
2015-Jun-30 15:33N 31°20' E 121°41'1010.3
2015-Jun-30 14:33N 31°16' E 121°52'1110.7
2015-Jun-30 13:33N 31°14' E 122°05'1110.9
2015-Jun-30 12:33N 31°08' E 122°15'8 8.1
2015-Jun-30 11:31N 31°07' E 122°25'52912.0
2015-Jun-28 15:20N 23°22' E 117°42'18913.4
2015-Jun-28 01:12N 22°08' E 114°33'2810.6
2015-Jun-27 22:33N 22°19' E 114°05'0 0.1
2015-Jun-27 21:33N 22°19' E 114°05'0 0.0
2015-Jun-27 20:33N 22°19' E 114°05'0 0.0
2015-Jun-27 19:33N 22°19' E 114°05'0 0.1
2015-Jun-27 18:33N 22°19' E 114°05'0 0.2
2015-Jun-27 17:33N 22°19' E 114°05'0 0.1
2015-Jun-27 16:33N 22°19' E 114°05'0 0.0
2015-Jun-27 15:30N 22°19' E 114°05'0 0.0
2015-Jun-27 14:33N 22°19' E 114°05'0 0.1
2015-Jun-27 13:33N 22°19' E 114°05'0 0.0
2015-Jun-27 12:33N 22°19' E 114°05'0 0.1
2015-Jun-27 11:30N 22°19' E 114°05'0 0.1
2015-Jun-27 10:33N 22°19' E 114°05'0 0.1
2015-Jun-27 09:33N 22°19' E 114°05'0 0.1
2015-Jun-27 08:33N 22°19' E 114°05'0 0.0
2015-Jun-27 07:33N 22°19' E 114°05'0 0.1
2015-Jun-27 06:33N 22°19' E 114°05'0 0.1
2015-Jun-27 05:33N 22°19' E 114°05'0 0.0
2015-Jun-27 04:33N 22°19' E 114°05'0 0.0
2015-Jun-27 03:33N 22°19' E 114°05'0 0.0
2015-Jun-27 02:33N 22°19' E 114°05'0 0.1
2015-Jun-27 01:33N 22°19' E 114°05'0 0.1
2015-Jun-27 00:30N 22°19' E 114°05'0 0.1
2015-Jun-26 23:33N 22°19' E 114°05'0 0.1
2015-Jun-26 22:33N 22°19' E 114°05'0 0.1
2015-Jun-26 21:33N 22°19' E 114°05'0 0.0
2015-Jun-26 20:33N 22°19' E 114°05'0 0.0
2015-Jun-26 19:33N 22°19' E 114°05'0 0.0
2015-Jun-26 18:33N 22°19' E 114°05'0 0.1
2015-Jun-26 17:33N 22°19' E 114°05'0 0.2
2015-Jun-26 16:33N 22°19' E 114°05'8 6.7
2015-Jun-26 15:25N 22°13' E 114°10'8 7.4
2015-Jun-26 14:20N 22°09' E 114°18'  

Dump ship's entire track history